createdAt,value
2022-10-11T00:00:45.237Z,477.1
2022-10-11T00:01:47.492Z,477.2
2022-10-11T00:02:49.102Z,477.1
2022-10-11T00:03:50.755Z,476.9
2022-10-11T00:04:52.300Z,477.1
2022-10-11T00:05:54.014Z,477.4
2022-10-11T00:06:55.620Z,476.7
2022-10-11T00:07:57.335Z,476.5
2022-10-11T00:08:58.879Z,476.9
2022-10-11T00:10:00.435Z,476.7
2022-10-11T00:11:02.181Z,476.8
2022-10-11T00:12:03.917Z,476.4
2022-10-11T00:13:05.570Z,476.4
2022-10-11T00:14:07.241Z,476.7
2022-10-11T00:15:09.082Z,476.5
2022-10-11T00:16:10.686Z,476.8
2022-10-11T00:17:12.380Z,476.9
2022-10-11T00:18:13.932Z,477.1
2022-10-11T00:19:15.550Z,477
2022-10-11T00:20:17.079Z,477.1
2022-10-11T00:21:18.611Z,477.2
2022-10-11T00:22:20.306Z,477
2022-10-11T00:23:21.799Z,477.1
2022-10-11T00:24:23.399Z,477
2022-10-11T00:25:24.924Z,477
2022-10-11T00:26:26.762Z,477.2
2022-10-11T00:27:28.404Z,477.2
2022-10-11T00:28:30.369Z,477.4
2022-10-11T00:29:32.016Z,477.7
2022-10-11T00:30:33.861Z,477.7
2022-10-11T00:31:36.609Z,477.6
2022-10-11T00:32:38.146Z,477.8
2022-10-11T00:33:39.695Z,477.4
2022-10-11T00:34:41.377Z,477.3
2022-10-11T00:35:42.998Z,477.6
2022-10-11T00:36:44.635Z,477.7
2022-10-11T00:37:46.184Z,477.8
2022-10-11T00:38:47.790Z,478
2022-10-11T00:39:49.505Z,477.7
2022-10-11T00:40:51.033Z,477.4
2022-10-11T00:41:52.759Z,477.8
2022-10-11T00:42:54.406Z,477.8
2022-10-11T00:43:55.941Z,477.7
2022-10-11T00:44:57.471Z,477.6
2022-10-11T00:45:59.266Z,478.1
2022-10-11T00:47:01.021Z,478.1
2022-10-11T00:48:02.632Z,478.4
2022-10-11T00:49:04.408Z,478.5
2022-10-11T00:50:06.058Z,478.7
2022-10-11T00:51:09.398Z,479.1
2022-10-11T00:52:11.067Z,479.2
2022-10-11T00:53:12.610Z,479.2
2022-10-11T00:54:14.204Z,479.2
2022-10-11T00:55:15.919Z,478.5
2022-10-11T00:56:17.459Z,478.5
2022-10-11T00:57:19.003Z,478.3
2022-10-11T00:58:20.583Z,478.3
2022-10-11T00:59:22.190Z,478.3
2022-10-11T01:00:23.934Z,478.9
2022-10-11T01:01:26.129Z,478.6
2022-10-11T01:02:27.976Z,478.8
2022-10-11T01:03:29.527Z,478.8
2022-10-11T01:04:31.138Z,478.8
2022-10-11T01:05:33.053Z,478.9
2022-10-11T01:06:34.594Z,479
2022-10-11T01:07:36.278Z,478.8
2022-10-11T01:08:37.805Z,479.1
2022-10-11T01:09:39.364Z,479.1
2022-10-11T01:10:40.897Z,479.1
2022-10-11T01:11:42.459Z,479.1
2022-10-11T01:12:44.161Z,478.9
2022-10-11T01:13:45.702Z,479.1
2022-10-11T01:14:47.376Z,479.2
2022-10-11T01:15:49.098Z,479
2022-10-11T01:16:50.970Z,479.2
2022-10-11T01:17:52.648Z,479.5
2022-10-11T01:18:54.460Z,479.6
2022-10-11T01:19:56.098Z,479.8
2022-10-11T01:20:57.749Z,479.8
2022-10-11T01:21:59.289Z,479.6
2022-10-11T01:23:00.965Z,479.8
2022-10-11T01:24:09.323Z,479.4
2022-10-11T01:25:10.883Z,480
2022-10-11T01:26:12.488Z,479.8
2022-10-11T01:27:13.995Z,479.3
2022-10-11T01:28:16.102Z,479.9
2022-10-11T01:29:17.736Z,479.9
2022-10-11T01:30:19.363Z,479.8
2022-10-11T01:31:21.065Z,480.2
2022-10-11T01:32:22.923Z,480.3
2022-10-11T01:33:24.749Z,480.3
2022-10-11T01:34:26.425Z,480.5
2022-10-11T01:35:28.153Z,480.2
2022-10-11T01:36:29.821Z,480.4
2022-10-11T01:37:31.741Z,480.6
2022-10-11T01:38:33.461Z,480.9
2022-10-11T01:39:35.267Z,480.8
2022-10-11T01:40:36.795Z,480.8
2022-10-11T01:41:38.353Z,480.9
2022-10-11T01:42:40.000Z,480.7
2022-10-11T01:43:41.635Z,480.6
2022-10-11T01:44:43.288Z,480.8
2022-10-11T01:45:45.017Z,481.2
2022-10-11T01:46:46.685Z,480.8
2022-10-11T01:47:48.522Z,480.4
2022-10-11T01:48:50.122Z,480.3
2022-10-11T01:49:51.821Z,480.4
2022-10-11T01:50:53.405Z,480.4
2022-10-11T01:51:55.179Z,480.3
2022-10-11T01:52:56.864Z,480.4
2022-10-11T01:53:58.605Z,480.1
2022-10-11T01:55:11.410Z,480.3
2022-10-11T01:56:13.125Z,480.2
2022-10-11T01:57:14.892Z,480.1
2022-10-11T01:58:16.539Z,480.2
2022-10-11T01:59:18.288Z,480.3
2022-10-11T02:00:19.927Z,480.1
2022-10-11T02:01:21.904Z,480.2
2022-10-11T02:02:23.582Z,480.6
2022-10-11T02:03:25.382Z,480.5
2022-10-11T02:04:27.145Z,480.6
2022-10-11T02:05:28.872Z,480.5
2022-10-11T02:06:30.414Z,480.7
2022-10-11T02:07:32.058Z,480.7
2022-10-11T02:08:33.711Z,480.8
2022-10-11T02:09:35.368Z,480.8
2022-10-11T02:10:36.952Z,480.3
2022-10-11T02:11:38.729Z,480.3
2022-10-11T02:12:40.404Z,480.1
2022-10-11T02:13:41.933Z,479.9
2022-10-11T02:14:43.468Z,479.9
2022-10-11T02:15:45.122Z,480.1
2022-10-11T02:16:46.780Z,480.3
2022-10-11T02:17:48.452Z,480.3
2022-10-11T02:18:50.373Z,480.9
2022-10-11T02:19:51.975Z,480.6
2022-10-11T02:20:53.550Z,480.7
2022-10-11T02:21:55.281Z,480.5
2022-10-11T02:22:57.150Z,480.9
2022-10-11T02:23:58.750Z,481
2022-10-11T02:25:00.522Z,481.1
2022-10-11T02:26:03.885Z,481.1
2022-10-11T02:27:05.795Z,481.5
2022-10-11T02:28:07.846Z,481.5
2022-10-11T02:29:09.424Z,481.2
2022-10-11T02:30:11.039Z,481.4
2022-10-11T02:31:12.581Z,481.6
2022-10-11T02:32:14.222Z,481.3
2022-10-11T02:33:15.821Z,481.5
2022-10-11T02:34:17.713Z,481.5
2022-10-11T02:35:19.359Z,481.5
2022-10-11T02:36:20.943Z,481.4
2022-10-11T02:37:22.553Z,481.6
2022-10-11T02:38:24.270Z,481.6
2022-10-11T02:39:26.047Z,481.6
2022-10-11T02:40:27.760Z,481.8
2022-10-11T02:41:32.321Z,481.3
2022-10-11T02:42:33.855Z,481.7
2022-10-11T02:43:35.601Z,481.5
2022-10-11T02:44:37.314Z,481.7
2022-10-11T02:45:38.990Z,481.5
2022-10-11T02:46:40.565Z,481.4
2022-10-11T02:47:42.394Z,481.4
2022-10-11T02:48:43.963Z,481.7
2022-10-11T02:49:45.874Z,481.4
2022-10-11T02:50:47.518Z,481.5
2022-10-11T02:51:49.144Z,481.7
2022-10-11T02:52:51.006Z,482.1
2022-10-11T02:53:52.540Z,482
2022-10-11T02:54:54.063Z,482.2
2022-10-11T02:55:55.714Z,482.1
2022-10-11T02:56:57.339Z,482.2
2022-10-11T02:57:58.938Z,482.3
2022-10-11T02:59:00.763Z,482.4
2022-10-11T03:00:02.502Z,482.3
2022-10-11T03:01:04.187Z,482.5
2022-10-11T03:02:06.326Z,482.2
2022-10-11T03:03:07.947Z,482.5
2022-10-11T03:04:09.489Z,482.8
2022-10-11T03:05:11.468Z,482.8
2022-10-11T03:06:13.124Z,482.6
2022-10-11T03:07:14.653Z,482.8
2022-10-11T03:08:16.205Z,482.7
2022-10-11T03:09:17.737Z,482.5
2022-10-11T03:10:19.313Z,482.7
2022-10-11T03:11:20.940Z,482.9
2022-10-11T03:12:22.655Z,482.9
2022-10-11T03:13:24.195Z,483.3
2022-10-11T03:14:25.734Z,483.5
2022-10-11T03:15:27.299Z,483.9
2022-10-11T03:16:28.964Z,483.8
2022-10-11T03:17:38.325Z,483.5
2022-10-11T03:18:39.851Z,483.6
2022-10-11T03:19:41.658Z,483.3
2022-10-11T03:20:46.182Z,483.5
2022-10-11T03:21:47.842Z,483.4
2022-10-11T03:22:49.371Z,483.3
2022-10-11T03:23:51.022Z,483.5
2022-10-11T03:24:52.667Z,483.1
2022-10-11T03:25:54.314Z,483.6
2022-10-11T03:26:55.858Z,483.7
2022-10-11T03:27:57.487Z,483.8
2022-10-11T03:28:59.426Z,483.4
2022-10-11T03:30:00.977Z,483.5
2022-10-11T03:31:02.578Z,483.7
2022-10-11T03:32:04.187Z,483.2
2022-10-11T03:33:05.829Z,483
2022-10-11T03:34:07.477Z,483.8
2022-10-11T03:35:09.193Z,483.7
2022-10-11T03:36:10.962Z,483.5
2022-10-11T03:37:12.626Z,483.6
2022-10-11T03:38:14.347Z,483.3
2022-10-11T03:39:16.203Z,483.4
2022-10-11T03:40:20.558Z,483.4
2022-10-11T03:41:22.166Z,483.7
2022-10-11T03:42:23.937Z,483.2
2022-10-11T03:43:25.506Z,483.5
2022-10-11T03:44:27.148Z,483.6
2022-10-11T03:45:28.679Z,483.5
2022-10-11T03:46:30.498Z,483.1
2022-10-11T03:47:32.143Z,484
2022-10-11T03:48:33.737Z,483.9
2022-10-11T03:49:44.206Z,483.9
2022-10-11T03:50:45.866Z,484.1
2022-10-11T03:51:47.625Z,484
2022-10-11T03:52:49.249Z,484
2022-10-11T03:53:50.923Z,484.3
2022-10-11T03:54:52.654Z,484.3
2022-10-11T03:55:54.183Z,484.6
2022-10-11T03:56:55.803Z,484.6
2022-10-11T03:57:57.468Z,484.6
2022-10-11T03:58:59.146Z,484.3
2022-10-11T04:00:00.674Z,484.5
2022-10-11T04:01:05.114Z,484.1
2022-10-11T04:02:07.172Z,484.4
2022-10-11T04:03:08.840Z,484.6
2022-10-11T04:04:10.551Z,484.8
2022-10-11T04:05:12.200Z,484.7
2022-10-11T04:06:14.009Z,485
2022-10-11T04:07:15.781Z,484.9
2022-10-11T04:08:17.444Z,484.9
2022-10-11T04:09:18.984Z,484.7
2022-10-11T04:10:23.265Z,484.8
2022-10-11T04:11:24.935Z,485
2022-10-11T04:12:26.469Z,484.7
2022-10-11T04:13:28.002Z,484.7
2022-10-11T04:14:29.663Z,484.5
2022-10-11T04:15:31.285Z,484.5
2022-10-11T04:16:33.138Z,484.1
2022-10-11T04:17:34.889Z,484.1
2022-10-11T04:18:36.491Z,484
2022-10-11T04:19:38.065Z,484.3
2022-10-11T04:20:39.724Z,483.9
2022-10-11T04:21:41.486Z,484.3
2022-10-11T04:22:43.330Z,484
2022-10-11T04:23:44.994Z,484.3
2022-10-11T04:24:46.525Z,483.9
2022-10-11T04:25:48.186Z,484
2022-10-11T04:26:49.753Z,484.2
2022-10-11T04:27:51.282Z,484.3
2022-10-11T04:28:53.620Z,484.1
2022-10-11T04:29:55.473Z,484.3
2022-10-11T04:30:57.303Z,484.3
2022-10-11T04:31:58.966Z,484.4
2022-10-11T04:33:00.574Z,483.8
2022-10-11T04:34:02.104Z,484.1
2022-10-11T04:35:05.368Z,483.9
2022-10-11T04:36:09.284Z,484.1
2022-10-11T04:37:11.021Z,483.9
2022-10-11T04:38:12.819Z,483.8
2022-10-11T04:39:14.581Z,483.9
2022-10-11T04:40:16.289Z,484
2022-10-11T04:41:17.890Z,483.8
2022-10-11T04:42:19.685Z,484.3
2022-10-11T04:43:21.262Z,484.1
2022-10-11T04:44:22.817Z,484.2
2022-10-11T04:45:24.349Z,484.3
2022-10-11T04:46:25.875Z,484
2022-10-11T04:47:27.529Z,484.3
2022-10-11T04:48:29.250Z,484.5
2022-10-11T04:49:30.788Z,484.2
2022-10-11T04:50:32.311Z,484.4
2022-10-11T04:51:34.125Z,484.8
2022-10-11T04:52:35.761Z,484.7
2022-10-11T04:53:38.113Z,484.4
2022-10-11T04:54:39.710Z,484.2
2022-10-11T04:55:41.289Z,484.3
2022-10-11T04:56:42.920Z,484.2
2022-10-11T04:57:44.607Z,484.1
2022-10-11T04:58:46.259Z,483.7
2022-10-11T04:59:50.847Z,484.1
2022-10-11T05:00:52.481Z,484
2022-10-11T05:01:54.605Z,484.2
2022-10-11T05:02:56.274Z,484.3
2022-10-11T05:03:57.953Z,484.3
2022-10-11T05:04:59.704Z,484
2022-10-11T05:06:06.940Z,483.7
2022-10-11T05:07:08.811Z,483.5
2022-10-11T05:08:10.341Z,483.5
2022-10-11T05:09:12.209Z,483.5
2022-10-11T05:10:13.972Z,483.6
2022-10-11T05:11:16.684Z,483.9
2022-10-11T05:12:18.265Z,484
2022-10-11T05:13:19.809Z,484.2
2022-10-11T05:14:21.473Z,484.5
2022-10-11T05:15:23.336Z,484.4
2022-10-11T05:16:24.895Z,484.5
2022-10-11T05:17:26.442Z,484.1
2022-10-11T05:18:28.056Z,484.1
2022-10-11T05:19:29.694Z,484.1
2022-10-11T05:20:31.413Z,483.8
2022-10-11T05:21:33.176Z,483.8
2022-10-11T05:22:34.746Z,483.6
2022-10-11T05:23:36.348Z,483.6
2022-10-11T05:24:38.125Z,483.6
2022-10-11T05:25:39.779Z,483.2
2022-10-11T05:26:41.487Z,482.9
2022-10-11T05:27:43.050Z,483.1
2022-10-11T05:28:45.154Z,483.2
2022-10-11T05:29:46.864Z,483.1
2022-10-11T05:30:48.523Z,482.7
2022-10-11T05:31:50.093Z,482.9
2022-10-11T05:32:51.630Z,482.6
2022-10-11T05:33:53.256Z,482.7
2022-10-11T05:34:54.975Z,482.5
2022-10-11T05:35:56.629Z,482.5
2022-10-11T05:36:58.188Z,482.5
2022-10-11T05:37:59.759Z,482.4
2022-10-11T05:39:01.366Z,482.4
2022-10-11T05:40:03.214Z,482.3
2022-10-11T05:41:04.891Z,482.4
2022-10-11T05:42:10.586Z,482.2
2022-10-11T05:43:12.125Z,482.3
2022-10-11T05:44:13.798Z,482.3
2022-10-11T05:45:15.381Z,482
2022-10-11T05:46:16.926Z,481.9
2022-10-11T05:47:18.725Z,482.2
2022-10-11T05:48:20.426Z,482.4
2022-10-11T05:49:22.023Z,482.5
2022-10-11T05:50:24.968Z,482.4
2022-10-11T05:51:26.527Z,482.4
2022-10-11T05:52:28.179Z,482.4
2022-10-11T05:53:29.738Z,482.4
2022-10-11T05:54:31.475Z,482.1
2022-10-11T05:55:33.252Z,482
2022-10-11T05:56:34.932Z,482.1
2022-10-11T05:57:36.585Z,482.1
2022-10-11T05:58:38.120Z,482.1
2022-10-11T05:59:39.798Z,482.2
2022-10-11T06:00:41.523Z,482.1
2022-10-11T06:01:43.513Z,482.2
2022-10-11T06:02:45.190Z,482.2
2022-10-11T06:03:46.978Z,482.2
2022-10-11T06:04:48.656Z,482.1
2022-10-11T06:06:04.028Z,482.4
2022-10-11T06:07:05.848Z,482.5
2022-10-11T06:08:07.498Z,482.4
2022-10-11T06:09:09.229Z,483
2022-10-11T06:10:10.785Z,483.2
2022-10-11T06:11:12.939Z,483.4
2022-10-11T06:12:14.543Z,483.3
2022-10-11T06:13:16.225Z,483.6
2022-10-11T06:14:17.882Z,483.8
2022-10-11T06:15:19.582Z,483.9
2022-10-11T06:16:21.242Z,483.9
2022-10-11T06:17:22.929Z,484
2022-10-11T06:18:24.538Z,484.1
2022-10-11T06:19:26.177Z,484.4
2022-10-11T06:20:28.309Z,484.5
2022-10-11T06:21:32.774Z,484.7
2022-10-11T06:22:34.430Z,484.8
2022-10-11T06:23:35.967Z,485
2022-10-11T06:24:37.581Z,484.9
2022-10-11T06:25:39.147Z,484.6
2022-10-11T06:26:41.001Z,485.1
2022-10-11T06:27:42.643Z,483.9
2022-10-11T06:28:44.857Z,483.9
2022-10-11T06:29:46.672Z,483.6
2022-10-11T06:30:48.204Z,483.4
2022-10-11T06:31:49.918Z,483.3
2022-10-11T06:32:51.485Z,482.9
2022-10-11T06:33:53.081Z,483.2
2022-10-11T06:34:54.693Z,483.4
2022-10-11T06:35:56.225Z,483.2
2022-10-11T06:36:57.947Z,483.4
2022-10-11T06:37:59.536Z,483.7
2022-10-11T06:39:01.130Z,483.4
2022-10-11T06:40:02.723Z,483.1
2022-10-11T06:41:04.256Z,483.5
2022-10-11T06:42:05.982Z,483
2022-10-11T06:43:07.590Z,483.4
2022-10-11T06:44:14.801Z,483
2022-10-11T06:45:16.694Z,482.7
2022-10-11T06:46:18.240Z,482.4
2022-10-11T06:47:19.907Z,482.4
2022-10-11T06:48:21.691Z,482.4
2022-10-11T06:49:24.342Z,482.4
2022-10-11T06:51:01.023Z,481.8
2022-10-11T06:52:02.755Z,481.3
2022-10-11T06:53:04.373Z,481.4
2022-10-11T06:54:05.971Z,481.3
2022-10-11T06:55:07.505Z,481
2022-10-11T06:56:10.262Z,481.1
2022-10-11T06:57:12.135Z,481.3
2022-10-11T06:58:13.978Z,481.1
2022-10-11T06:59:15.599Z,480.9
2022-10-11T07:00:17.248Z,481.4
2022-10-11T07:01:19.340Z,481.4
2022-10-11T07:02:21.085Z,481.7
2022-10-11T07:03:22.812Z,481.8
2022-10-11T07:04:24.384Z,481.7
2022-10-11T07:05:25.979Z,481.8
2022-10-11T07:06:27.570Z,481.6
2022-10-11T07:07:29.310Z,481.8
2022-10-11T07:08:31.161Z,481.8
2022-10-11T07:09:32.746Z,482.2
2022-10-11T07:10:34.406Z,482.3
2022-10-11T07:11:36.090Z,482.2
2022-10-11T07:12:37.939Z,482.8
2022-10-11T07:13:39.767Z,482.7
2022-10-11T07:14:41.508Z,482.5
2022-10-11T07:15:43.162Z,482.8
2022-10-11T07:16:44.906Z,482.7
2022-10-11T07:17:46.651Z,482.6
2022-10-11T07:18:48.194Z,482.6
2022-10-11T07:19:49.859Z,482.2
2022-10-11T07:20:51.669Z,482.2
2022-10-11T07:21:53.466Z,482.5
2022-10-11T07:22:54.991Z,482
2022-10-11T07:23:56.934Z,482.1
2022-10-11T07:24:58.781Z,481.8
2022-10-11T07:26:00.450Z,481.7
2022-10-11T07:27:02.293Z,481.5
2022-10-11T07:28:04.148Z,481.6
2022-10-11T07:29:06.341Z,481.6
2022-10-11T07:30:08.068Z,481.5
2022-10-11T07:31:09.806Z,481.7
2022-10-11T07:32:11.645Z,481.5
2022-10-11T07:33:13.451Z,481.7
2022-10-11T07:34:15.328Z,481.8
2022-10-11T07:35:17.006Z,481.8
2022-10-11T07:36:18.728Z,481.8
2022-10-11T07:37:20.353Z,481.8
2022-10-11T07:38:22.522Z,482
2022-10-11T07:39:24.170Z,481.6
2022-10-11T07:40:25.858Z,482
2022-10-11T07:41:27.684Z,481.5
2022-10-11T07:42:29.289Z,481.6
2022-10-11T07:43:31.699Z,481.9
2022-10-11T07:44:33.367Z,481.7
2022-10-11T07:45:34.899Z,481.8
2022-10-11T07:46:36.603Z,481.7
2022-10-11T07:47:38.574Z,481.7
2022-10-11T07:48:40.257Z,481.5
2022-10-11T07:49:41.985Z,482
2022-10-11T07:50:43.565Z,481.8
2022-10-11T07:51:45.088Z,481.8
2022-10-11T07:52:46.722Z,481.9
2022-10-11T07:53:48.357Z,481.6
2022-10-11T07:54:50.015Z,482.1
2022-10-11T07:55:51.557Z,482.3
2022-10-11T07:56:53.571Z,482.2
2022-10-11T07:57:55.230Z,482.3
2022-10-11T07:58:57.192Z,481.8
2022-10-11T07:59:59.021Z,481.9
2022-10-11T08:01:01.015Z,481.9
2022-10-11T08:02:03.604Z,482.2
2022-10-11T08:03:05.396Z,482.1
2022-10-11T08:04:06.978Z,482.3
2022-10-11T08:05:08.709Z,482
2022-10-11T08:06:11.351Z,482
2022-10-11T08:07:13.142Z,482.1
2022-10-11T08:08:14.791Z,482.1
2022-10-11T08:09:16.434Z,482.4
2022-10-11T08:10:18.031Z,481.9
2022-10-11T08:11:19.575Z,481.8
2022-10-11T08:12:21.936Z,481.8
2022-10-11T08:13:23.479Z,481.6
2022-10-11T08:14:25.387Z,481.2
2022-10-11T08:15:27.199Z,481
2022-10-11T08:16:28.912Z,480.9
2022-10-11T08:17:31.014Z,480.9
2022-10-11T08:18:33.035Z,480.8
2022-10-11T08:19:34.796Z,480.1
2022-10-11T08:20:36.445Z,480.3
2022-10-11T08:21:38.066Z,480.3
2022-10-11T08:22:39.765Z,480
2022-10-11T08:23:41.310Z,479.9
2022-10-11T08:24:42.881Z,479.9
2022-10-11T08:25:44.590Z,479.9
2022-10-11T08:26:46.224Z,480
2022-10-11T08:27:47.873Z,479.9
2022-10-11T08:28:49.950Z,480.2
2022-10-11T08:29:51.771Z,480.1
2022-10-11T08:30:53.800Z,480.2
2022-10-11T08:31:55.413Z,480.3
2022-10-11T08:32:57.113Z,480.3
2022-10-11T08:33:58.803Z,480.2
2022-10-11T08:35:00.421Z,480.1
2022-10-11T08:36:04.178Z,480.3
2022-10-11T08:37:06.250Z,480.6
2022-10-11T08:38:07.921Z,481.2
2022-10-11T08:39:09.641Z,480.7
2022-10-11T08:40:13.366Z,480.8
2022-10-11T08:41:14.999Z,481.1
2022-10-11T08:42:16.828Z,481.4
2022-10-11T08:43:18.479Z,481
2022-10-11T08:44:20.174Z,481.3
2022-10-11T08:45:22.083Z,481.2
2022-10-11T08:46:23.805Z,481.5
2022-10-11T08:47:25.658Z,481.4
2022-10-11T08:48:27.194Z,482
2022-10-11T08:49:28.895Z,481.3
2022-10-11T08:50:30.505Z,481.6
2022-10-11T08:51:32.184Z,481.2
2022-10-11T08:52:33.852Z,481.4
2022-10-11T08:53:35.389Z,481.6
2022-10-11T08:54:37.175Z,481.2
2022-10-11T08:55:39.125Z,481
2022-10-11T08:56:40.768Z,481
2022-10-11T08:57:42.618Z,480.9
2022-10-11T08:58:44.265Z,481.2
2022-10-11T08:59:46.033Z,480.7
2022-10-11T09:00:47.851Z,480.7
2022-10-11T09:01:49.962Z,480.5
2022-10-11T09:03:10.318Z,480.8
2022-10-11T09:04:11.982Z,480.7
2022-10-11T09:05:13.560Z,480.9
2022-10-11T09:06:15.098Z,481
2022-10-11T09:07:16.644Z,481.5
2022-10-11T09:08:18.328Z,481.9
2022-10-11T09:09:19.874Z,481.4
2022-10-11T09:10:21.509Z,481.6
2022-10-11T09:11:23.053Z,481.5
2022-10-11T09:12:41.039Z,482.1
2022-10-11T09:13:42.900Z,482.1
2022-10-11T09:14:44.512Z,482.2
2022-10-11T09:15:46.121Z,482
2022-10-11T09:16:48.015Z,481.9
2022-10-11T09:17:49.646Z,482
2022-10-11T09:18:51.305Z,482.4
2022-10-11T09:19:52.919Z,482.4
2022-10-11T09:20:54.467Z,482.3
2022-10-11T09:21:56.302Z,482.6
2022-10-11T09:22:57.881Z,482.6
2022-10-11T09:23:59.542Z,482.3
2022-10-11T09:25:01.185Z,482.5
2022-10-11T09:26:04.617Z,482.6
2022-10-11T09:27:06.578Z,482.5
2022-10-11T09:28:11.605Z,482.4
2022-10-11T09:29:13.225Z,482.3
2022-10-11T09:30:14.922Z,482.3
2022-10-11T09:31:16.560Z,481.8
2022-10-11T09:32:18.514Z,482.2
2022-10-11T09:33:20.247Z,482
2022-10-11T09:34:21.912Z,482.1
2022-10-11T09:35:23.539Z,482.2
2022-10-11T09:36:25.069Z,482.2
2022-10-11T09:37:26.689Z,482.4
2022-10-11T09:38:28.217Z,482.3
2022-10-11T09:39:29.927Z,482.4
2022-10-11T09:40:31.654Z,482.2
2022-10-11T09:41:33.430Z,482.4
2022-10-11T09:42:35.044Z,482.5
2022-10-11T09:43:36.689Z,482.7
2022-10-11T09:44:38.282Z,482.4
2022-10-11T09:45:39.809Z,482.8
2022-10-11T09:46:41.555Z,482.6
2022-10-11T09:47:43.397Z,482.9
2022-10-11T09:48:44.992Z,482.9
2022-10-11T09:49:47.018Z,482.8
2022-10-11T09:50:48.715Z,483.2
2022-10-11T09:51:50.574Z,483
2022-10-11T09:52:52.312Z,483.3
2022-10-11T09:53:53.877Z,483.2
2022-10-11T09:54:55.529Z,483.8
2022-10-11T09:55:57.163Z,483.6
2022-10-11T09:56:58.782Z,483.8
2022-10-11T09:58:00.369Z,484.1
2022-10-11T09:59:02.202Z,484.1
2022-10-11T10:00:03.868Z,484.1
2022-10-11T10:01:08.998Z,484.2
2022-10-11T10:02:10.828Z,484
2022-10-11T10:03:12.685Z,483.8
2022-10-11T10:04:14.408Z,484.1
2022-10-11T10:05:16.169Z,484.2
2022-10-11T10:06:17.754Z,484.4
2022-10-11T10:07:19.621Z,484.5
2022-10-11T10:08:21.325Z,485.1
2022-10-11T10:09:22.906Z,485.1
2022-10-11T10:10:24.445Z,485
2022-10-11T10:11:26.022Z,485
2022-10-11T10:12:27.600Z,485.4
2022-10-11T10:13:29.132Z,485.3
2022-10-11T10:14:30.758Z,485.4
2022-10-11T10:15:32.301Z,485.1
2022-10-11T10:16:33.950Z,485.2
2022-10-11T10:17:35.722Z,485.3
2022-10-11T10:18:37.620Z,485.5
2022-10-11T10:19:45.756Z,485.3
2022-10-11T10:20:47.454Z,485.6
2022-10-11T10:21:49.426Z,485.4
2022-10-11T10:22:51.066Z,485.4
2022-10-11T10:23:52.669Z,485.8
2022-10-11T10:24:54.308Z,485.4
2022-10-11T10:25:55.955Z,485.8
2022-10-11T10:26:57.579Z,485.9
2022-10-11T10:27:59.231Z,485.9
2022-10-11T10:29:01.410Z,486
2022-10-11T10:30:03.441Z,486
2022-10-11T10:31:05.132Z,485.8
2022-10-11T10:32:15.834Z,486.2
2022-10-11T10:33:17.467Z,485.8
2022-10-11T10:34:19.240Z,486.1
2022-10-11T10:35:20.830Z,486.3
2022-10-11T10:36:22.613Z,486.2
2022-10-11T10:37:24.143Z,486
2022-10-11T10:38:27.452Z,486.3
2022-10-11T10:39:29.046Z,486.5
2022-10-11T10:40:30.747Z,486.7
2022-10-11T10:41:32.499Z,486.5
2022-10-11T10:42:34.141Z,486.5
2022-10-11T10:43:35.866Z,486.6
2022-10-11T10:44:37.413Z,486.3
2022-10-11T10:45:39.054Z,486.8
2022-10-11T10:46:40.590Z,486.5
2022-10-11T10:47:42.224Z,486.5
2022-10-11T10:49:55.271Z,486.6
2022-10-11T10:50:57.053Z,486.9
2022-10-11T10:51:58.597Z,487.2
2022-10-11T10:53:00.122Z,487.2
2022-10-11T10:54:01.778Z,487.6
2022-10-11T10:55:03.415Z,487.6
2022-10-11T10:56:06.498Z,487.4
2022-10-11T10:57:08.337Z,487.9
2022-10-11T10:58:13.971Z,488.2
2022-10-11T10:59:17.985Z,487.9
2022-10-11T11:00:19.508Z,487.9
2022-10-11T11:01:21.465Z,488.1
2022-10-11T11:02:42.283Z,488.1
2022-10-11T11:03:43.957Z,488.2
2022-10-11T11:04:45.953Z,488.1
2022-10-11T11:05:47.719Z,488.4
2022-10-11T11:06:49.366Z,488.5
2022-10-11T11:07:50.896Z,488.4
2022-10-11T11:08:52.525Z,488.8
2022-10-11T11:09:54.143Z,488.6
2022-10-11T11:10:55.832Z,488.6
2022-10-11T11:11:57.563Z,488.8
2022-10-11T11:12:59.240Z,489.2
2022-10-11T11:14:00.957Z,488.6
2022-10-11T11:15:02.616Z,488.8
2022-10-11T11:16:05.708Z,489
2022-10-11T11:17:07.573Z,488.8
2022-10-11T11:18:09.215Z,488.5
2022-10-11T11:19:10.944Z,488.9
2022-10-11T11:20:12.668Z,489.1
2022-10-11T11:21:14.548Z,488.9
2022-10-11T11:22:16.452Z,489
2022-10-11T11:23:17.992Z,489.3
2022-10-11T11:24:19.684Z,489.4
2022-10-11T11:25:21.514Z,489.7
2022-10-11T11:26:23.191Z,489.5
2022-10-11T11:27:24.726Z,489.7
2022-10-11T11:28:26.706Z,489.8
2022-10-11T11:29:28.402Z,490.1
2022-10-11T11:30:29.953Z,490
2022-10-11T11:31:31.492Z,490.2
2022-10-11T11:32:33.169Z,490.1
2022-10-11T11:33:34.892Z,490.1
2022-10-11T11:34:36.550Z,490.2
2022-10-11T11:35:38.291Z,490.3
2022-10-11T11:36:40.012Z,490.6
2022-10-11T11:37:41.827Z,490.5
2022-10-11T11:38:43.560Z,490.7
2022-10-11T11:39:45.181Z,491.1
2022-10-11T11:40:46.748Z,491.1
2022-10-11T11:41:48.464Z,491.2
2022-10-11T11:42:50.207Z,491.3
2022-10-11T11:43:51.828Z,491.4
2022-10-11T11:44:53.372Z,491.6
2022-10-11T11:45:54.972Z,491.6
2022-10-11T11:46:56.608Z,491.5
2022-10-11T11:47:58.268Z,491.6
2022-10-11T11:48:59.847Z,491.5
2022-10-11T11:50:01.398Z,491.8
2022-10-11T11:51:04.767Z,491.3
2022-10-11T11:52:06.675Z,491.4
2022-10-11T11:53:08.330Z,491.3
2022-10-11T11:54:09.874Z,491.5
2022-10-11T11:55:11.595Z,491.3
2022-10-11T11:56:13.154Z,491.5
2022-10-11T11:57:14.900Z,491.4
2022-10-11T11:58:16.637Z,491.4
2022-10-11T11:59:18.392Z,491.5
2022-10-11T12:00:20.062Z,491.5
2022-10-11T12:01:21.777Z,491.6
2022-10-11T12:02:23.554Z,491.6
2022-10-11T12:03:25.353Z,491.6
2022-10-11T12:04:27.127Z,492
2022-10-11T12:05:29.028Z,491.3
2022-10-11T12:06:31.005Z,491.6
2022-10-11T12:07:32.680Z,491.8
2022-10-11T12:08:34.340Z,491.6
2022-10-11T12:09:35.873Z,491.7
2022-10-11T12:10:37.588Z,491.9
2022-10-11T12:11:39.220Z,491.8
2022-10-11T12:12:40.775Z,492.2
2022-10-11T12:13:42.543Z,491.9
2022-10-11T12:14:44.187Z,491.9
2022-10-11T12:15:45.938Z,492
2022-10-11T12:16:47.538Z,492.1
2022-10-11T12:17:49.082Z,492
2022-10-11T12:18:50.725Z,491.8
2022-10-11T12:19:52.290Z,491.9
2022-10-11T12:20:53.865Z,491.8
2022-10-11T12:21:55.598Z,491.7
2022-10-11T12:22:57.364Z,491.8
2022-10-11T12:23:59.005Z,491.7
2022-10-11T12:25:00.721Z,491.4
2022-10-11T12:26:02.371Z,491.7
2022-10-11T12:27:03.963Z,491.5
2022-10-11T12:28:05.496Z,491.7
2022-10-11T12:29:07.022Z,492
2022-10-11T12:30:08.711Z,491.9
2022-10-11T12:31:10.420Z,492.1
2022-10-11T12:32:12.018Z,491.9
2022-10-11T12:33:13.680Z,492.1
2022-10-11T12:34:15.328Z,492
2022-10-11T12:35:17.093Z,492.1
2022-10-11T12:36:18.721Z,492.2
2022-10-11T12:37:20.394Z,492.5
2022-10-11T12:38:22.242Z,492.8
2022-10-11T12:39:24.174Z,493.1
2022-10-11T12:40:25.849Z,492.9
2022-10-11T12:41:27.475Z,493.1
2022-10-11T12:42:29.098Z,493
2022-10-11T12:43:30.748Z,492.9
2022-10-11T12:44:32.640Z,492.9
2022-10-11T12:45:34.282Z,492.7
2022-10-11T12:46:35.819Z,493.3
2022-10-11T12:47:37.467Z,492.9
2022-10-11T12:48:42.012Z,493
2022-10-11T12:49:43.792Z,493.5
2022-10-11T12:50:45.441Z,493.4
2022-10-11T12:51:47.185Z,493.6
2022-10-11T12:52:48.951Z,493.8
2022-10-11T12:54:36.829Z,493.4
2022-10-11T12:55:38.852Z,493.6
2022-10-11T12:56:43.224Z,493.6
2022-10-11T12:57:47.329Z,493.5
2022-10-11T12:58:49.361Z,493.7
2022-10-11T12:59:50.914Z,493.6
2022-10-11T13:00:53.063Z,493.8
2022-10-11T13:01:54.834Z,493.3
2022-10-11T13:02:56.595Z,494
2022-10-11T13:03:58.307Z,493.8
2022-10-11T13:04:59.856Z,494.1
2022-10-11T13:06:02.569Z,493.8
2022-10-11T13:07:07.376Z,494
2022-10-11T13:08:09.022Z,493.9
2022-10-11T13:09:10.737Z,494
2022-10-11T13:10:12.420Z,493.6
2022-10-11T13:11:14.076Z,493.5
2022-10-11T13:12:15.715Z,493.6
2022-10-11T13:13:17.472Z,493.2
2022-10-11T13:14:19.387Z,493.2
2022-10-11T13:15:21.237Z,493.1
2022-10-11T13:16:22.782Z,492.9
2022-10-11T13:17:24.532Z,492.8
2022-10-11T13:18:26.364Z,492.8
2022-10-11T13:19:28.480Z,492.8
2022-10-11T13:20:30.067Z,492.8
2022-10-11T13:21:31.839Z,493.1
2022-10-11T13:22:33.593Z,493
2022-10-11T13:23:35.285Z,492.9
2022-10-11T13:24:36.986Z,493.1
2022-10-11T13:25:38.924Z,493.1